Woodstock, VA

3:21 AM EDT on May 06, 2015 (GMT -0400)
Winchester Regional | | Change Station
CLOSE
Current Station
Airport
Location: Winchester,
Elevation: 728 ft
Nearby Weather Stations
Active Advisory: Dense Fog Advisory

Elev 728 ft 39.14 °N, 78.14 °W | Updated 6 minutes ago

Partly Cloudy
Partly Cloudy
63 °F
Feels Like 63 °F
N
4
Wind Variable Wind from WSW

Today
High -- | Low -- °F
--% Chance of Precip.
Yesterday
High -- | Low -- °F
Precip. -- in
6:10 AM 8:11 PM
Waning Gibbous, 95% visible
Pressure 30.21 in
Visibility 10.0 miles
Clouds Clear
Dew Point 55 °F
Humidity 77%
Rainfall 0.00 in
Snow Depth Not available.
UV 0 out of 12
Pollen 8.90 out of 12
Air Quality Not available.
Flu Activity Sporadic
METAR KOKV 060715Z AUTO 25003KT 10SM CLR 17/13 A3021 RMK AO2

More Conditions Fewer Conditions

Pressure 30.21 in
Visibility 10.0 miles
Clouds Clear
Dew Point 55 °F
Humidity 77%
Rainfall 0.00 in
Snow Depth Not available.
UV 0 out of 12
Pollen 8.90 out of 12
Air Quality Not available.
Flu Activity Sporadic
METAR KOKV 060715Z AUTO 25003KT 10SM CLR 17/13 A3021 RMK AO2

More Conditions Fewer Conditions

10-Day Weather Forecast

Almanac

Astronomy

May. 06, 2015 Rise Set
Actual Time
Civil Twilight
Nautical Twilight
Astronomical Twilight
Moon
Length of Visible Light
Length of Day
Tomorrow will be .
, % of the Moon is Illuminated

Today's Extremes

State Highs State Lows

Community

WunderPhotos

Upload Photos

1,818,850 photos uploaded!

WunderBlogs® & News

Nearby

Air Quality

  Air Quality AQ Index Pollutant
Not available.

Snow Depth

Station Depth Elevation

Earthquake Activity

City Distance Mag. Time & Date
Minimum magnitude displayed is 2.5.

Coastal Water Temperatures

Place Temperature

Stations

Nearby Weather Stations

Station Location Temp. Windchill Dew Point Humidity Wind Precip. Elev Updated Type
                   
Dense Fog Advisory
Statement as of 1:52 AM EDT on May 06, 2015

... Dense fog advisory in effect until 8 am EDT this morning...

The National Weather Service in Baltimore MD/Washington has
issued a dense fog advisory... which is in effect until 8 am EDT
this morning.

* Visibilities... around one-quarter mile or less.

* Impacts... areas of dense fog will cause sudden reductions in
visibility and rapidly changing conditions.

Precautionary/preparedness actions...

A dense fog advisory means visibilities will frequently be
reduced to less than one quarter mile. If driving... slow down...
use your low-beam headlights... and leave plenty of distance ahead
of you.